Time;durP1;ratioP1;P1;durP2;ratioP2;P2;SDS_P1;SDS_P2;PMS_P1;PMS_P2;Temp;Humidity;BMP_temperature;BMP_pressure;BME280_temperature;BME280_humidity;BME280_pressure;Samples;Min_cycle;Max_cycle;Signal;HPM_P1;HPM_P2
2023/10/20 00:00:33;;;;;;;32.25;21.58;;;10.40;99.90;;;;;;5033550;28;20074;-81
2023/10/20 00:02:59;;;;;;;30.90;20.67;;;10.40;99.90;;;;;;5032979;28;20091;-80
2023/10/20 00:05:24;;;;;;;29.38;20.73;;;10.40;99.90;;;;;;5037105;28;20067;-80
2023/10/20 00:07:50;;;;;;;30.50;21.35;;;10.40;99.90;;;;;;5027292;28;20041;-81
2023/10/20 00:10:17;;;;;;;35.45;23.23;;;10.40;99.90;;;;;;5034460;28;20378;-81
2023/10/20 00:12:43;;;;;;;37.88;24.40;;;10.40;99.90;;;;;;5035171;28;20033;-81
2023/10/20 00:15:13;;;;;;;39.60;24.55;;;10.40;99.90;;;;;;5031155;28;20531;-81
2023/10/20 00:17:40;;;;;;;34.95;22.98;;;10.40;99.90;;;;;;5032534;28;20489;-81
2023/10/20 00:20:09;;;;;;;32.58;21.60;;;10.30;99.90;;;;;;5033192;28;20037;-81
2023/10/20 00:22:35;;;;;;;33.17;21.10;;;10.30;99.90;;;;;;5040663;28;20036;-80
2023/10/20 00:25:04;;;;;;;31.88;21.95;;;10.40;99.90;;;;;;5036058;28;20067;-81
2023/10/20 00:27:30;;;;;;;32.63;21.65;;;10.40;99.90;;;;;;5037306;28;20025;-80
2023/10/20 00:29:55;;;;;;;28.55;20.75;;;10.40;99.90;;;;;;5030830;28;20117;-81
2023/10/20 00:32:21;;;;;;;26.88;18.58;;;10.40;99.90;;;;;;5036514;28;20571;-80
2023/10/20 00:34:47;;;;;;;25.40;17.88;;;10.40;99.90;;;;;;5036641;28;20041;-81
2023/10/20 00:37:13;;;;;;;29.80;19.85;;;10.30;99.90;;;;;;5018986;28;20033;-80
2023/10/20 00:39:39;;;;;;;32.80;20.77;;;10.30;99.90;;;;;;5037049;28;20053;-80
2023/10/20 00:42:04;;;;;;;27.83;20.00;;;10.30;99.90;;;;;;5035322;28;20037;-80
2023/10/20 00:44:30;;;;;;;28.13;19.35;;;10.30;99.90;;;;;;5036094;28;20060;-79
2023/10/20 00:46:57;;;;;;;28.15;19.65;;;10.30;99.90;;;;;;5038615;28;20539;-82
2023/10/20 00:49:23;;;;;;;27.25;19.10;;;10.30;99.90;;;;;;5034474;28;20060;-79
2023/10/20 00:51:50;;;;;;;28.63;18.27;;;10.30;99.90;;;;;;5031559;28;20045;-80
2023/10/20 00:54:16;;;;;;;23.38;17.10;;;10.30;99.90;;;;;;5033453;28;20041;-80
2023/10/20 00:56:42;;;;;;;23.02;17.30;;;10.30;99.90;;;;;;5034076;28;20040;-79
2023/10/20 00:59:08;;;;;;;22.75;16.98;;;10.30;99.90;;;;;;5027289;28;20044;-79
2023/10/20 01:01:35;;;;;;;26.70;18.20;;;10.20;99.90;;;;;;5031323;28;20037;-80
2023/10/20 01:04:01;;;;;;;24.70;18.13;;;10.20;99.90;;;;;;5033505;28;20363;-79
2023/10/20 01:06:28;;;;;;;24.23;16.58;;;10.20;99.90;;;;;;5035037;28;20091;-80
2023/10/20 01:08:55;;;;;;;27.02;17.67;;;10.10;99.90;;;;;;5031403;28;20149;-80
2023/10/20 01:11:21;;;;;;;24.90;17.40;;;10.10;99.90;;;;;;5034309;28;20057;-79
2023/10/20 01:13:47;;;;;;;25.33;16.48;;;10.10;99.90;;;;;;5032771;28;20048;-79
2023/10/20 01:16:13;;;;;;;23.52;15.77;;;10.00;99.90;;;;;;5048789;28;20041;-80
2023/10/20 01:18:38;;;;;;;24.98;17.23;;;10.00;99.90;;;;;;5033615;28;20064;-81
2023/10/20 01:21:04;;;;;;;24.20;16.20;;;10.00;99.90;;;;;;5034193;28;20084;-79
2023/10/20 01:23:30;;;;;;;22.02;16.42;;;10.00;99.90;;;;;;5033912;28;20025;-79
2023/10/20 01:25:57;;;;;;;23.13;16.48;;;10.00;99.90;;;;;;5033426;28;20035;-80
2023/10/20 01:28:23;;;;;;;24.40;16.67;;;10.00;99.90;;;;;;5028678;28;20038;-80
2023/10/20 01:30:49;;;;;;;23.98;16.05;;;9.90;99.90;;;;;;5024052;28;20044;-77
2023/10/20 01:33:15;;;;;;;22.52;16.30;;;10.00;99.90;;;;;;5031193;28;20029;-79
2023/10/20 01:35:41;;;;;;;25.52;16.60;;;9.90;99.90;;;;;;5044030;28;20113;-81
2023/10/20 01:38:06;;;;;;;25.90;16.92;;;9.90;99.90;;;;;;5020954;28;20029;-81
2023/10/20 01:40:32;;;;;;;21.35;16.55;;;9.90;99.90;;;;;;5022190;28;20022;-80
2023/10/20 01:42:58;;;;;;;24.25;16.35;;;9.90;99.90;;;;;;5018838;28;20032;-81
2023/10/20 01:45:24;;;;;;;26.73;17.23;;;9.90;99.90;;;;;;5029282;28;20018;-81
2023/10/20 01:47:50;;;;;;;23.73;15.77;;;9.90;99.90;;;;;;5024069;28;20106;-80
2023/10/20 01:50:17;;;;;;;25.23;16.85;;;9.90;99.90;;;;;;5030617;28;20042;-82
2023/10/20 01:52:42;;;;;;;24.73;17.33;;;9.90;99.90;;;;;;5028912;28;20022;-82
2023/10/20 01:55:09;;;;;;;27.60;17.60;;;9.90;99.90;;;;;;5028301;28;20033;-80
2023/10/20 01:57:35;;;;;;;25.15;17.38;;;9.90;99.90;;;;;;5028888;28;20549;-81
2023/10/20 02:00:03;;;;;;;22.75;17.67;;;9.90;99.90;;;;;;5032765;28;20527;-80
2023/10/20 02:02:38;;;;;;;25.13;16.27;;;9.90;99.90;;;;;;5034726;28;20040;-80
2023/10/20 02:05:04;;;;;;;21.77;15.88;;;9.90;99.90;;;;;;5032308;28;20064;-80
2023/10/20 02:07:30;;;;;;;28.67;17.02;;;9.90;99.90;;;;;;5033745;28;20079;-80
2023/10/20 02:09:55;;;;;;;23.40;16.13;;;9.90;99.90;;;;;;5034651;28;20026;-81
2023/10/20 02:12:22;;;;;;;23.45;16.48;;;9.90;99.90;;;;;;5018378;28;20029;-82
2023/10/20 02:14:47;;;;;;;22.42;16.35;;;9.90;99.90;;;;;;5037132;28;20093;-82
2023/10/20 02:17:14;;;;;;;24.25;16.20;;;9.90;99.90;;;;;;5035288;28;20077;-81
2023/10/20 02:19:40;;;;;;;22.83;15.57;;;9.90;99.90;;;;;;5029299;28;20128;-80
2023/10/20 02:22:06;;;;;;;22.58;15.30;;;9.90;99.90;;;;;;5047509;28;20064;-81
2023/10/20 02:24:31;;;;;;;22.98;15.57;;;9.90;99.90;;;;;;5036902;28;20087;-80
2023/10/20 02:26:58;;;;;;;23.52;15.80;;;9.90;99.90;;;;;;5035636;28;20030;-82
2023/10/20 02:29:24;;;;;;;22.20;16.42;;;9.90;99.90;;;;;;5032008;28;20041;-81
2023/10/20 02:31:50;;;;;;;22.80;15.93;;;9.90;99.90;;;;;;5033652;28;20026;-80
2023/10/20 02:34:16;;;;;;;24.05;16.67;;;10.00;99.90;;;;;;5031346;28;20443;-80
2023/10/20 02:36:42;;;;;;;22.27;15.65;;;10.00;99.90;;;;;;5032034;28;20041;-79
2023/10/20 02:39:08;;;;;;;22.35;15.55;;;10.00;99.90;;;;;;5031795;28;20044;-79
2023/10/20 02:41:33;;;;;;;21.55;14.45;;;10.00;99.90;;;;;;5030171;28;20066;-80
2023/10/20 02:43:59;;;;;;;22.77;15.50;;;10.00;99.90;;;;;;5031369;28;20079;-79
2023/10/20 02:46:25;;;;;;;22.52;16.83;;;10.00;99.90;;;;;;5033047;28;20037;-80
2023/10/20 02:48:51;;;;;;;23.83;16.95;;;10.00;99.90;;;;;;5032890;28;20065;-80
2023/10/20 02:51:17;;;;;;;23.98;16.38;;;10.00;99.90;;;;;;5030983;28;20093;-81
2023/10/20 02:53:43;;;;;;;20.52;14.40;;;10.00;99.90;;;;;;5031942;28;20052;-81
2023/10/20 02:56:17;;;;;;;22.75;14.60;;;10.00;99.90;;;;;;5034619;28;20067;-81
2023/10/20 02:58:44;;;;;;;23.40;15.52;;;10.00;99.90;;;;;;5042525;28;20039;-81
2023/10/20 03:01:13;;;;;;;21.23;14.35;;;10.00;99.90;;;;;;5032020;28;20060;-81
2023/10/20 03:03:39;;;;;;;26.05;17.15;;;10.00;99.90;;;;;;5033306;28;20152;-81
2023/10/20 03:06:06;;;;;;;28.75;19.10;;;10.00;99.90;;;;;;5035314;28;20065;-81
2023/10/20 03:08:33;;;;;;;34.60;20.52;;;10.10;99.90;;;;;;5036155;28;20080;-81
2023/10/20 03:10:59;;;;;;;34.35;21.13;;;10.10;99.90;;;;;;5034822;28;20032;-81
2023/10/20 03:13:26;;;;;;;32.75;20.13;;;10.20;99.90;;;;;;5036982;28;20505;-80
2023/10/20 03:15:53;;;;;;;33.45;20.65;;;10.20;99.90;;;;;;5038343;28;20053;-80
2023/10/20 03:18:19;;;;;;;31.02;20.48;;;10.20;99.90;;;;;;5036068;28;20053;-81
2023/10/20 03:20:46;;;;;;;27.95;18.67;;;10.30;99.90;;;;;;5032752;28;20041;-81
2023/10/20 03:23:15;;;;;;;31.30;19.50;;;10.30;99.90;;;;;;5036082;28;20571;-81
2023/10/20 03:25:42;;;;;;;27.42;18.52;;;10.30;99.90;;;;;;5033455;28;20026;-81
2023/10/20 03:28:08;;;;;;;27.92;19.58;;;10.30;99.90;;;;;;5036272;28;20032;-82
2023/10/20 03:30:40;;;;;;;30.75;19.77;;;10.30;99.90;;;;;;5036660;28;20120;-81
2023/10/20 03:33:08;;;;;;;29.08;19.45;;;10.30;99.90;;;;;;5034959;28;20117;-81
2023/10/20 03:35:33;;;;;;;29.35;18.50;;;10.30;99.90;;;;;;5034967;28;20045;-79
2023/10/20 03:38:00;;;;;;;26.40;18.10;;;10.30;99.90;;;;;;5037090;28;20034;-81
2023/10/20 03:40:31;;;;;;;32.25;19.63;;;10.30;99.90;;;;;;5036847;28;20627;-80
2023/10/20 03:42:58;;;;;;;27.38;19.17;;;10.30;99.90;;;;;;5037061;28;20037;-81
2023/10/20 03:45:24;;;;;;;27.10;19.05;;;10.30;99.90;;;;;;5044511;28;20485;-79
2023/10/20 03:47:51;;;;;;;28.08;18.80;;;10.30;99.90;;;;;;5035516;28;20631;-82
2023/10/20 03:50:17;;;;;;;26.58;18.88;;;10.30;99.90;;;;;;5046282;28;20105;-82
2023/10/20 03:52:45;;;;;;;27.58;17.90;;;10.30;99.90;;;;;;5020246;28;20485;-81
2023/10/20 03:55:15;;;;;;;27.10;19.55;;;10.30;99.90;;;;;;5034417;28;20132;-83
2023/10/20 03:57:43;;;;;;;27.80;19.58;;;10.30;99.90;;;;;;5032982;28;20048;-79
2023/10/20 04:00:28;;;;;;;25.98;18.33;;;10.30;99.90;;;;;;5032147;28;20049;-81
2023/10/20 04:02:55;;;;;;;;;;;10.30;99.90;;;;;;5024089;28;20030;-82
2023/10/20 04:05:21;;;;;;;26.20;17.77;;;10.30;99.90;;;;;;5031223;28;19966;-80
2023/10/20 04:07:47;;;;;;;28.33;17.55;;;10.30;99.90;;;;;;5028300;28;20107;-81
2023/10/20 04:10:14;;;;;;;25.75;17.23;;;10.30;99.90;;;;;;5047419;28;20037;-80
2023/10/20 04:12:44;;;;;;;25.77;18.30;;;10.30;99.90;;;;;;5030491;28;20041;-83
2023/10/20 04:15:20;;;;;;;25.85;17.63;;;10.30;99.90;;;;;;5029763;28;20131;-80
2023/10/20 04:17:52;;;;;;;28.35;20.02;;;10.30;99.90;;;;;;5029866;28;20045;-82
2023/10/20 04:20:23;;;;;;;29.45;19.33;;;10.30;99.90;;;;;;5047597;28;20029;-81
2023/10/20 04:22:49;;;;;;;28.52;19.83;;;10.30;99.90;;;;;;5031263;28;20120;-81
2023/10/20 04:25:39;;;;;;;32.05;21.17;;;10.20;99.90;;;;;;5032055;28;20118;-83
2023/10/20 04:41:56;;;;;;;32.40;21.40;;;10.20;99.90;;;;;;5027279;28;20072;-79
2023/10/20 04:57:56;;;;;;;25.77;18.65;;;10.30;99.90;;;;;;5029070;28;20697;-81
2023/10/20 05:07:56;;;;;;;21.23;15.80;;;10.30;99.90;;;;;;5031408;28;20037;-79
2023/10/20 05:10:23;;;;;;;22.13;16.38;;;10.20;99.90;;;;;;5033792;28;20039;-80
2023/10/20 05:12:51;;;;;;;28.85;20.17;;;10.20;99.90;;;;;;5035361;28;20049;-80
2023/10/20 05:15:17;;;;;;;30.75;19.48;;;10.30;99.90;;;;;;5035575;28;20037;-79
2023/10/20 05:17:46;;;;;;;33.25;20.88;;;10.30;99.90;;;;;;5024560;28;20557;-81
2023/10/20 05:20:15;;;;;;;29.90;20.23;;;10.30;99.90;;;;;;5035967;28;20038;-80
2023/10/20 05:22:41;;;;;;;30.00;19.75;;;10.40;99.90;;;;;;5033562;28;20038;-79
2023/10/20 05:25:08;;;;;;;32.17;21.13;;;10.40;99.90;;;;;;5036449;28;20034;-78
2023/10/20 05:27:34;;;;;;;31.67;20.27;;;10.40;99.90;;;;;;5037599;28;20029;-82
2023/10/20 05:30:00;;;;;;;36.13;21.38;;;10.40;99.90;;;;;;5036881;28;20033;-80
2023/10/20 05:32:29;;;;;;;33.15;21.50;;;10.50;99.90;;;;;;5036291;28;20025;-81
2023/10/20 05:34:56;;;;;;;31.92;21.30;;;10.50;99.90;;;;;;5037590;28;20116;-80
2023/10/20 05:37:22;;;;;;;34.35;20.88;;;10.50;99.90;;;;;;5037929;28;20093;-81
2023/10/20 05:39:48;;;;;;;30.98;20.38;;;10.50;99.90;;;;;;5037701;28;20060;-81
2023/10/20 05:42:16;;;;;;;32.22;20.77;;;10.50;99.90;;;;;;5034306;28;20554;-79
2023/10/20 05:44:59;;;;;;;32.67;20.92;;;10.50;99.90;;;;;;5039508;28;20037;-81
2023/10/20 05:47:25;;;;;;;35.17;22.02;;;10.50;99.90;;;;;;5032790;28;20224;-79
2023/10/20 05:49:52;;;;;;;32.83;20.67;;;10.50;99.90;;;;;;5035642;28;20405;-80
2023/10/20 05:52:17;;;;;;;30.67;20.67;;;10.50;99.90;;;;;;5029147;28;20033;-79
2023/10/20 05:54:43;;;;;;;28.95;20.50;;;10.50;99.90;;;;;;5036295;28;20037;-80
2023/10/20 05:57:09;;;;;;;32.55;20.60;;;10.50;99.90;;;;;;5035162;28;20071;-80
2023/10/20 05:59:35;;;;;;;31.90;20.52;;;10.50;99.90;;;;;;5035454;28;20051;-80
2023/10/20 06:02:03;;;;;;;33.22;21.13;;;10.50;99.90;;;;;;5031600;28;20450;-79
2023/10/20 06:04:29;;;;;;;28.85;19.52;;;10.50;99.90;;;;;;5034542;28;20039;-79
2023/10/20 06:06:55;;;;;;;34.13;20.73;;;10.50;99.90;;;;;;5034545;28;20041;-80
2023/10/20 06:09:21;;;;;;;28.00;18.95;;;10.50;99.90;;;;;;5034246;28;20033;-80
2023/10/20 06:11:46;;;;;;;30.65;19.23;;;10.50;99.90;;;;;;5033500;28;20059;-80
2023/10/20 06:14:12;;;;;;;29.88;19.23;;;10.50;99.90;;;;;;5049744;28;20036;-80
2023/10/20 06:16:38;;;;;;;29.95;18.80;;;10.60;99.90;;;;;;5034941;28;20037;-80
2023/10/20 06:19:04;;;;;;;28.20;18.83;;;10.60;99.90;;;;;;5033149;28;20436;-79
2023/10/20 06:21:30;;;;;;;25.23;17.60;;;10.60;99.90;;;;;;5029806;28;20099;-80
2023/10/20 06:23:56;;;;;;;27.73;19.25;;;10.60;99.90;;;;;;5033027;28;20041;-80
2023/10/20 06:26:22;;;;;;;28.48;18.27;;;10.60;99.90;;;;;;5032676;28;20041;-80
2023/10/20 06:28:48;;;;;;;25.55;18.55;;;10.60;99.90;;;;;;5036215;28;20034;-80
2023/10/20 06:34:24;;;;;;;28.25;18.45;;;10.70;99.90;;;;;;5036336;28;20056;-82
2023/10/20 06:37:07;;;;;;;28.50;17.80;;;10.60;99.90;;;;;;5027086;28;20535;-79
2023/10/20 06:39:33;;;;;;;31.95;20.38;;;10.70;99.90;;;;;;5024901;28;20045;-80
2023/10/20 06:41:58;;;;;;;28.55;19.27;;;10.70;99.90;;;;;;5029035;28;20034;-81
2023/10/20 06:44:26;;;;;;;26.77;18.52;;;10.70;99.90;;;;;;5028855;28;20029;-80
2023/10/20 06:46:52;;;;;;;27.85;18.20;;;10.70;99.90;;;;;;5030674;28;20068;-80
2023/10/20 06:49:18;;;;;;;28.83;18.65;;;10.70;99.90;;;;;;5029863;28;20058;-83
2023/10/20 06:51:47;;;;;;;28.83;19.25;;;10.60;99.90;;;;;;5028330;28;20031;-82
2023/10/20 06:54:13;;;;;;;28.75;18.38;;;10.60;99.90;;;;;;5033043;28;20057;-80
2023/10/20 06:56:39;;;;;;;30.10;19.20;;;10.60;99.90;;;;;;5033171;28;20385;-80
2023/10/20 06:59:05;;;;;;;32.20;20.10;;;10.60;99.90;;;;;;5032693;28;20490;-79
2023/10/20 07:01:35;;;;;;;28.88;20.55;;;10.50;99.90;;;;;;5024159;28;20029;-80
2023/10/20 07:04:02;;;;;;;32.33;21.08;;;10.50;99.90;;;;;;5028373;28;20037;-79
2023/10/20 07:06:28;;;;;;;29.20;20.33;;;10.50;99.90;;;;;;5030730;28;20125;-81
2023/10/20 07:08:54;;;;;;;32.70;20.42;;;10.50;99.90;;;;;;5030680;28;20045;-82
2023/10/20 07:11:20;;;;;;;29.23;20.50;;;10.50;99.90;;;;;;5030332;28;20049;-82
2023/10/20 07:13:46;;;;;;;29.27;20.15;;;10.50;99.90;;;;;;5015989;28;20075;-80
2023/10/20 07:16:12;;;;;;;31.98;20.70;;;10.50;99.90;;;;;;5025825;28;20597;-80
2023/10/20 07:18:38;;;;;;;32.90;21.92;;;10.50;99.90;;;;;;5029279;28;20084;-81
2023/10/20 07:21:04;;;;;;;34.38;21.20;;;10.50;99.90;;;;;;5021149;28;20120;-81
2023/10/20 07:23:31;;;;;;;31.92;19.85;;;10.50;99.90;;;;;;5034636;28;20072;-80
2023/10/20 07:25:57;;;;;;;32.33;21.27;;;10.50;99.90;;;;;;5036003;28;20109;-83
2023/10/20 07:28:23;;;;;;;31.13;21.48;;;10.40;99.90;;;;;;5035516;28;20076;-81
2023/10/20 07:30:50;;;;;;;31.08;21.98;;;10.50;99.90;;;;;;5030530;28;20281;-81
2023/10/20 07:33:16;;;;;;;33.58;22.15;;;10.40;99.90;;;;;;5036692;28;20021;-81
2023/10/20 07:35:42;;;;;;;28.00;20.02;;;10.50;99.90;;;;;;5032034;28;20512;-80
2023/10/20 07:38:08;;;;;;;28.75;20.50;;;10.50;99.90;;;;;;5029696;28;20507;-79
2023/10/20 07:40:37;;;;;;;31.85;21.50;;;10.40;99.90;;;;;;5029036;28;20489;-78
2023/10/20 07:43:06;;;;;;;28.65;20.27;;;10.40;99.90;;;;;;5028354;28;20493;-83
2023/10/20 07:45:41;;;;;;;30.73;20.92;;;10.50;99.90;;;;;;5024918;28;20083;-81
2023/10/20 07:48:08;;;;;;;29.23;20.85;;;10.50;99.90;;;;;;5029547;28;20034;-80
2023/10/20 07:50:34;;;;;;;32.50;21.10;;;10.50;99.90;;;;;;5031369;28;20059;-81
2023/10/20 07:53:01;;;;;;;31.10;21.17;;;10.50;99.90;;;;;;5040357;28;20784;-80
2023/10/20 07:55:26;;;;;;;32.70;23.50;;;10.50;99.90;;;;;;5038703;28;20029;-82
2023/10/20 07:57:54;;;;;;;33.17;22.65;;;10.50;99.90;;;;;;5037150;28;20033;-81
2023/10/20 08:00:20;;;;;;;32.40;21.42;;;10.50;99.90;;;;;;5026879;28;20033;-81
2023/10/20 08:02:48;;;;;;;30.67;21.30;;;10.50;99.90;;;;;;5035088;28;20243;-82
2023/10/20 08:05:14;;;;;;;29.33;20.92;;;10.50;99.90;;;;;;5035721;28;20029;-81
2023/10/20 08:07:41;;;;;;;33.80;21.73;;;10.50;99.90;;;;;;5032101;28;20037;-81
2023/10/20 08:10:07;;;;;;;28.33;21.52;;;10.50;99.90;;;;;;5033455;28;20042;-79
2023/10/20 08:12:33;;;;;;;29.70;21.85;;;10.50;99.90;;;;;;5029526;28;20061;-81
2023/10/20 08:14:59;;;;;;;34.30;23.00;;;10.50;99.90;;;;;;5032963;28;20029;-80
2023/10/20 08:17:25;;;;;;;31.65;21.92;;;10.50;99.90;;;;;;5037103;28;20053;-81
2023/10/20 08:19:51;;;;;;;35.28;24.20;;;10.60;99.90;;;;;;5033393;28;20030;-81
2023/10/20 08:22:17;;;;;;;38.90;26.08;;;10.60;99.90;;;;;;5013675;28;20512;-81
2023/10/20 08:24:42;;;;;;;39.90;27.08;;;10.60;99.90;;;;;;5032531;28;20037;-80
2023/10/20 08:27:08;;;;;;;34.80;24.52;;;10.70;99.90;;;;;;5033151;28;20488;-81
2023/10/20 08:29:34;;;;;;;35.70;25.08;;;10.70;99.90;;;;;;5033756;28;20041;-83
2023/10/20 08:32:00;;;;;;;34.65;23.17;;;10.80;99.90;;;;;;5031917;28;20034;-80
2023/10/20 08:34:26;;;;;;;31.75;22.60;;;10.80;99.90;;;;;;5038511;28;20022;-81
2023/10/20 08:36:51;;;;;;;30.08;21.55;;;10.90;99.90;;;;;;5036976;28;20037;-81
2023/10/20 08:39:20;;;;;;;29.70;20.60;;;10.90;99.90;;;;;;5038232;28;20046;-80
2023/10/20 08:41:46;;;;;;;26.58;19.45;;;10.90;99.90;;;;;;5036852;28;20037;-82
2023/10/20 08:44:12;;;;;;;26.70;19.90;;;10.90;99.90;;;;;;5050354;28;20037;-79
2023/10/20 08:46:42;;;;;;;26.25;19.25;;;10.90;99.90;;;;;;5028311;28;20026;-80
2023/10/20 08:49:09;;;;;;;29.50;19.23;;;11.00;99.90;;;;;;5030317;28;20455;-81
2023/10/20 08:51:38;;;;;;;25.38;18.35;;;11.00;99.90;;;;;;5039447;28;20060;-80
2023/10/20 08:54:08;;;;;;;27.63;18.65;;;11.00;99.90;;;;;;5039537;28;20033;-78
2023/10/20 08:56:34;;;;;;;24.13;17.33;;;11.00;99.90;;;;;;5036056;28;20099;-80
2023/10/20 08:58:59;;;;;;;25.77;18.02;;;11.10;99.90;;;;;;5034037;28;20041;-80
2023/10/20 09:01:25;;;;;;;30.67;21.38;;;11.10;99.90;;;;;;5030686;28;20082;-79
2023/10/20 09:03:59;;;;;;;32.97;21.42;;;11.20;99.90;;;;;;5033349;28;20052;-80
2023/10/20 09:06:26;;;;;;;30.77;21.25;;;11.30;99.90;;;;;;5029510;28;20045;-82
2023/10/20 09:08:52;;;;;;;29.40;22.13;;;11.30;99.90;;;;;;5031305;28;20025;-82
2023/10/20 09:11:19;;;;;;;32.78;22.38;;;11.40;99.90;;;;;;5026358;28;20034;-78
2023/10/20 09:13:45;;;;;;;32.65;22.63;;;11.40;99.90;;;;;;5029898;28;20124;-80
2023/10/20 09:16:13;;;;;;;31.20;22.10;;;11.50;99.90;;;;;;5028161;28;20029;-80
2023/10/20 09:18:52;;;;;;;33.35;23.40;;;11.50;99.90;;;;;;5022969;28;20092;-82
2023/10/20 09:21:20;;;;;;;31.85;23.30;;;11.40;99.90;;;;;;5029978;28;20490;-79
2023/10/20 09:24:07;;;;;;;35.25;24.27;;;11.40;99.90;;;;;;5030182;28;20475;-80
2023/10/20 09:26:36;;;;;;;32.95;22.38;;;11.50;99.90;;;;;;5027781;28;20057;-79
2023/10/20 09:29:05;;;;;;;33.92;22.70;;;11.50;99.90;;;;;;5025518;28;20029;-83
2023/10/20 09:31:32;;;;;;;34.80;23.55;;;11.60;99.90;;;;;;5024408;28;20124;-81
2023/10/20 09:33:58;;;;;;;34.15;23.30;;;11.70;99.90;;;;;;5030311;28;20065;-80
2023/10/20 09:36:24;;;;;;;32.00;23.58;;;11.80;99.90;;;;;;5042272;28;20033;-82
2023/10/20 09:38:55;;;;;;;31.38;21.42;;;11.80;99.90;;;;;;5029802;28;20044;-80
2023/10/20 09:41:23;;;;;;;31.23;21.52;;;11.90;99.90;;;;;;5028776;28;20025;-79
2023/10/20 09:44:02;;;;;;;28.42;20.33;;;11.90;99.90;;;;;;5033943;28;20057;-80
2023/10/20 09:46:56;;;;;;;27.77;19.65;;;12.00;99.90;;;;;;5036558;28;20087;-80
2023/10/20 09:49:24;;;;;;;29.42;19.10;;;12.00;99.90;;;;;;5023999;28;20093;-81
2023/10/20 09:51:50;;;;;;;28.67;19.95;;;12.00;99.90;;;;;;5032952;28;20053;-79
2023/10/20 09:54:33;;;;;;;25.42;19.60;;;12.00;99.90;;;;;;5037002;28;20036;-78
2023/10/20 09:57:00;;;;;;;25.52;19.48;;;12.00;99.90;;;;;;5033469;28;20200;-81
2023/10/20 09:59:30;;;;;;;28.00;18.58;;;12.00;99.90;;;;;;5028915;28;20493;-80
2023/10/20 10:01:57;;;;;;;25.60;19.80;;;12.00;99.90;;;;;;5032541;28;20029;-81
2023/10/20 10:04:33;;;;;;;23.10;16.92;;;12.00;99.90;;;;;;5034545;28;20049;-83
2023/10/20 10:07:03;;;;;;;25.63;18.15;;;12.00;99.90;;;;;;5043957;28;20038;-83
2023/10/20 10:09:43;;;;;;;28.63;20.20;;;12.00;99.90;;;;;;5039097;28;20040;-81
2023/10/20 10:12:11;;;;;;;25.75;18.48;;;12.00;99.90;;;;;;5037940;28;20131;-83
2023/10/20 10:14:37;;;;;;;27.85;18.55;;;12.00;99.90;;;;;;5038842;28;20117;-83
2023/10/20 10:17:08;;;;;;;27.38;19.05;;;12.10;99.90;;;;;;5037204;28;20033;-80
2023/10/20 10:19:34;;;;;;;26.83;19.27;;;12.10;99.90;;;;;;5040345;28;20033;-79
2023/10/20 10:22:02;;;;;;;25.40;18.77;;;12.20;99.90;;;;;;5037493;28;20445;-78
2023/10/20 10:24:31;;;;;;;23.67;18.25;;;12.20;99.90;;;;;;5043875;28;20041;-79
2023/10/20 10:27:00;;;;;;;23.85;18.52;;;12.30;99.90;;;;;;5039433;28;20033;-83
2023/10/20 10:29:53;;;;;;;25.42;17.40;;;12.40;99.90;;;;;;5039332;28;20042;-83
2023/10/20 10:32:26;;;;;;;25.40;18.10;;;12.40;99.90;;;;;;5038461;28;20040;-82
2023/10/20 10:34:52;;;;;;;24.25;18.45;;;12.40;99.90;;;;;;5039442;28;20033;-82
2023/10/20 10:37:37;;;;;;;24.67;19.25;;;12.40;99.90;;;;;;5040081;28;20507;-77
2023/10/20 10:40:07;;;;;;;25.65;20.23;;;12.40;99.90;;;;;;5032667;28;20048;-81
2023/10/20 10:42:47;;;;;;;26.05;19.58;;;12.40;99.90;;;;;;5035077;28;20037;-80
2023/10/20 10:45:21;;;;;;;23.52;17.67;;;12.40;99.90;;;;;;5036523;28;20037;-81
2023/10/20 10:48:02;;;;;;;24.30;17.95;;;12.50;99.90;;;;;;5033459;28;20044;-82
2023/10/20 10:50:28;;;;;;;25.30;18.15;;;12.60;99.90;;;;;;5024847;28;20022;-80
2023/10/20 10:52:53;;;;;;;23.85;17.80;;;12.60;99.90;;;;;;5034403;28;20485;-81
2023/10/20 10:55:20;;;;;;;24.08;17.70;;;12.70;99.90;;;;;;5037719;28;20041;-82
2023/10/20 10:57:46;;;;;;;23.80;17.88;;;12.70;99.90;;;;;;5027294;28;20082;-83
2023/10/20 11:00:15;;;;;;;22.90;17.73;;;12.70;99.90;;;;;;5030960;28;20329;-82
2023/10/20 11:02:43;;;;;;;21.52;16.88;;;12.70;99.90;;;;;;5036134;28;20037;-81
2023/10/20 11:05:09;;;;;;;24.08;18.75;;;12.80;99.90;;;;;;5030177;28;20042;-79
2023/10/20 11:07:36;;;;;;;26.10;17.17;;;12.80;99.90;;;;;;5028630;28;20097;-83
2023/10/20 11:10:03;;;;;;;22.60;16.95;;;12.80;99.90;;;;;;5036174;28;20508;-82
2023/10/20 11:12:30;;;;;;;22.55;17.10;;;12.80;99.90;;;;;;5035079;28;20674;-80
2023/10/20 11:15:05;;;;;;;24.70;17.27;;;12.80;99.90;;;;;;5030460;28;20401;-80
2023/10/20 11:17:31;;;;;;;22.55;16.75;;;12.80;99.90;;;;;;5023971;28;20057;-82
2023/10/20 11:19:57;;;;;;;24.48;17.63;;;12.80;99.90;;;;;;5030121;28;20026;-81
2023/10/20 11:22:23;;;;;;;26.05;18.50;;;12.90;99.90;;;;;;5045401;28;20485;-81
2023/10/20 11:24:53;;;;;;;25.90;18.50;;;12.90;99.90;;;;;;5032491;28;20128;-80
2023/10/20 11:27:19;;;;;;;27.60;18.77;;;13.00;99.90;;;;;;5036590;28;20045;-82
2023/10/20 11:29:45;;;;;;;21.05;15.77;;;13.10;99.90;;;;;;5036610;28;20033;-82
2023/10/20 11:32:14;;;;;;;20.90;15.82;;;13.10;99.90;;;;;;5035537;28;20811;-81
2023/10/20 11:34:40;;;;;;;19.38;14.23;;;13.10;99.90;;;;;;5039752;28;20034;-82
2023/10/20 11:37:07;;;;;;;18.33;14.25;;;13.10;99.90;;;;;;5035774;28;20836;-82
2023/10/20 11:39:36;;;;;;;20.70;15.73;;;13.10;99.90;;;;;;5035878;28;20090;-82
2023/10/20 11:42:03;;;;;;;18.38;13.32;;;13.10;99.90;;;;;;5033254;28;20480;-79
2023/10/20 11:44:29;;;;;;;16.67;12.70;;;13.00;99.90;;;;;;5036008;28;20041;-80
2023/10/20 11:46:56;;;;;;;17.20;13.63;;;12.90;99.90;;;;;;5031511;28;20037;-80
2023/10/20 11:49:24;;;;;;;15.73;12.50;;;13.00;99.90;;;;;;5035473;28;20029;-80
2023/10/20 11:51:50;;;;;;;18.02;13.35;;;13.00;99.90;;;;;;5038549;28;20056;-78
2023/10/20 11:54:16;;;;;;;14.80;11.50;;;13.00;99.90;;;;;;5035744;28;20021;-81
2023/10/20 11:56:42;;;;;;;18.00;12.57;;;13.00;99.90;;;;;;5032671;28;20030;-82
2023/10/20 11:59:09;;;;;;;18.15;13.35;;;13.00;99.90;;;;;;5035672;28;20064;-81
2023/10/20 12:01:36;;;;;;;16.45;13.63;;;13.00;99.90;;;;;;5034273;28;20041;-81
2023/10/20 12:04:05;;;;;;;15.70;12.98;;;13.00;99.90;;;;;;5033930;28;20052;-80
2023/10/20 12:06:36;;;;;;;17.63;13.93;;;12.90;99.90;;;;;;5040147;28;20397;-79
2023/10/20 12:09:10;;;;;;;17.17;13.68;;;12.90;99.90;;;;;;5033171;28;20034;-78
2023/10/20 12:11:37;;;;;;;15.53;13.27;;;12.80;99.90;;;;;;5039260;28;20028;-79
2023/10/20 12:14:04;;;;;;;16.20;13.15;;;12.80;99.90;;;;;;5035543;28;20268;-79
2023/10/20 12:16:30;;;;;;;17.02;13.88;;;12.80;99.90;;;;;;5038321;28;20037;-78
2023/10/20 12:19:01;;;;;;;17.52;13.43;;;12.90;99.90;;;;;;5034230;28;20435;-78
2023/10/20 12:21:28;;;;;;;19.20;14.18;;;13.00;99.90;;;;;;5030119;28;20033;-81
2023/10/20 12:23:54;;;;;;;18.88;14.60;;;13.00;99.90;;;;;;5036812;28;20496;-81
2023/10/20 12:26:20;;;;;;;18.33;14.15;;;13.10;99.90;;;;;;5033654;28;20129;-81
2023/10/20 12:28:46;;;;;;;17.35;14.57;;;13.20;99.90;;;;;;5035032;28;20043;-80
2023/10/20 12:31:12;;;;;;;17.23;13.80;;;13.30;99.90;;;;;;5038811;28;20917;-83
2023/10/20 12:33:38;;;;;;;18.77;14.07;;;13.20;99.90;;;;;;5035436;28;20032;-80
2023/10/20 12:36:04;;;;;;;18.67;14.10;;;13.30;99.90;;;;;;5035849;28;20030;-80
2023/10/20 12:38:31;;;;;;;17.17;13.70;;;13.40;99.90;;;;;;5034299;28;20048;-81
2023/10/20 12:40:56;;;;;;;17.00;14.00;;;13.40;99.90;;;;;;5035157;28;20405;-81
2023/10/20 12:43:23;;;;;;;18.63;13.93;;;13.50;99.90;;;;;;5034450;28;20029;-81
2023/10/20 12:45:49;;;;;;;18.08;14.15;;;13.50;99.90;;;;;;5035083;28;20493;-80
2023/10/20 12:48:15;;;;;;;15.75;11.38;;;13.60;99.90;;;;;;5016252;28;20026;-80
2023/10/20 12:50:41;;;;;;;15.95;12.52;;;13.70;99.90;;;;;;5033973;28;20390;-81
2023/10/20 12:53:07;;;;;;;18.45;14.13;;;13.80;99.90;;;;;;5038238;28;20036;-81
2023/10/20 12:55:34;;;;;;;16.08;12.30;;;13.80;99.90;;;;;;5035332;28;20056;-81
2023/10/20 12:58:02;;;;;;;17.02;12.77;;;13.90;99.90;;;;;;5032562;28;20557;-80
2023/10/20 13:00:28;;;;;;;15.95;13.40;;;13.90;99.90;;;;;;5034219;28;20068;-81
2023/10/20 13:02:54;;;;;;;16.15;12.90;;;13.90;99.90;;;;;;5037084;28;20033;-79
2023/10/20 13:05:21;;;;;;;16.55;12.55;;;14.00;99.90;;;;;;5037919;28;20052;-80
2023/10/20 13:07:47;;;;;;;15.52;11.85;;;14.00;99.90;;;;;;5033896;28;20034;-81